Time;durP1;ratioP1;P1;durP2;ratioP2;P2;SDS_P1;SDS_P2;PMS_P1;PMS_P2;Temp;Humidity;BMP_temperature;BMP_pressure;BME280_temperature;BME280_humidity;BME280_pressure;Samples;Min_cycle;Max_cycle;Signal;HPM_P1;HPM_P2
2022/11/15 00:00:32;;;;;;;6.13;2.77;;;14.00;37.30;;;;;;4973251;28;20186;-71
2022/11/15 00:02:58;;;;;;;3.80;1.70;;;13.30;38.00;;;;;;4972260;28;20773;-71
2022/11/15 00:05:24;;;;;;;9.20;1.87;;;12.80;40.50;;;;;;4976410;28;20466;-71
2022/11/15 00:07:50;;;;;;;3.10;1.40;;;12.00;41.70;;;;;;4973144;28;20175;-71
2022/11/15 00:10:16;;;;;;;3.13;1.37;;;11.90;42.00;;;;;;4955815;28;20441;-71
2022/11/15 00:12:41;;;;;;;3.40;1.53;;;11.90;42.00;;;;;;4969051;28;20225;-71
2022/11/15 00:15:07;;;;;;;2.87;1.20;;;11.90;41.80;;;;;;4969427;28;20599;-71
2022/11/15 00:17:33;;;;;;;3.73;1.73;;;11.50;42.60;;;;;;4973229;28;20232;-71
2022/11/15 00:19:58;;;;;;;3.83;1.60;;;10.90;45.60;;;;;;4972592;28;20842;-71
2022/11/15 00:22:24;;;;;;;2.80;1.20;;;10.80;46.50;;;;;;4991542;28;20290;-71
2022/11/15 00:24:49;;;;;;;3.10;1.33;;;11.40;46.50;;;;;;4967741;28;20193;-70
2022/11/15 00:27:15;;;;;;;2.70;1.20;;;11.30;45.10;;;;;;4973921;28;20720;-70
2022/11/15 00:29:43;;;;;;;2.50;1.20;;;11.50;44.00;;;;;;4973693;28;20269;-70
2022/11/15 00:32:10;;;;;;;2.47;1.15;;;11.50;44.10;;;;;;4980451;28;20208;-70
2022/11/15 00:34:36;;;;;;;3.25;1.73;;;11.70;43.40;;;;;;4987300;28;20181;-70
2022/11/15 00:37:01;;;;;;;2.90;1.40;;;11.70;43.30;;;;;;4983814;28;20728;-70
2022/11/15 00:39:27;;;;;;;3.23;2.07;;;11.60;43.40;;;;;;4972423;28;20178;-70
2022/11/15 00:41:52;;;;;;;2.97;1.80;;;11.50;43.90;;;;;;4972169;28;20682;-70
2022/11/15 00:44:18;;;;;;;3.13;1.53;;;11.60;43.00;;;;;;4960742;28;20248;-70
2022/11/15 00:46:43;;;;;;;2.70;1.67;;;11.60;42.90;;;;;;4974697;28;20220;-70
2022/11/15 00:49:09;;;;;;;2.40;1.30;;;11.60;43.30;;;;;;4972089;28;20650;-70
2022/11/15 00:51:35;;;;;;;2.67;1.50;;;11.50;43.10;;;;;;4972116;28;20197;-70
2022/11/15 00:54:00;;;;;;;2.37;1.20;;;11.50;43.20;;;;;;4972430;28;20255;-70
2022/11/15 00:56:26;;;;;;;2.30;1.20;;;11.50;43.00;;;;;;4972391;28;20324;-71
2022/11/15 00:58:52;;;;;;;2.50;1.23;;;11.60;42.70;;;;;;4976807;28;20192;-70
2022/11/15 01:01:18;;;;;;;2.75;1.65;;;11.50;42.70;;;;;;4966031;28;20194;-70
2022/11/15 01:03:43;;;;;;;2.57;1.50;;;11.60;42.60;;;;;;4972399;28;20186;-70
2022/11/15 01:06:10;;;;;;;2.83;1.40;;;11.50;42.60;;;;;;4971719;28;20202;-70
2022/11/15 01:08:36;;;;;;;2.30;1.30;;;11.30;42.90;;;;;;4972814;28;20182;-70
2022/11/15 01:11:11;;;;;;;2.30;1.27;;;11.30;42.90;;;;;;4968507;28;20268;-70
2022/11/15 01:13:38;;;;;;;2.40;1.50;;;11.30;43.20;;;;;;4961465;28;20477;-70
2022/11/15 01:16:16;;;;;;;2.30;1.30;;;11.20;43.30;;;;;;4972154;28;20204;-70
2022/11/15 01:18:43;;;;;;;3.08;1.80;;;11.20;43.30;;;;;;4971340;28;20189;-70
2022/11/15 01:21:15;;;;;;;2.20;1.20;;;11.40;43.80;;;;;;4971717;28;20649;-70
2022/11/15 01:23:40;;;;;;;5.00;2.47;;;11.30;43.70;;;;;;4963583;28;20192;-70
2022/11/15 01:26:09;;;;;;;4.33;1.97;;;10.80;44.80;;;;;;4972067;28;20206;-70
2022/11/15 01:28:37;;;;;;;2.10;1.20;;;10.70;45.40;;;;;;4963645;28;20661;-70
2022/11/15 01:31:05;;;;;;;2.20;1.30;;;10.70;45.30;;;;;;4978982;28;20197;-70
2022/11/15 01:33:36;;;;;;;2.72;1.58;;;10.80;45.40;;;;;;4954412;28;20181;-70
2022/11/15 01:36:06;;;;;;;2.10;1.23;;;10.90;45.00;;;;;;4972199;28;20181;-70
2022/11/15 01:38:32;;;;;;;3.20;1.85;;;10.90;44.50;;;;;;4969993;28;20199;-70
2022/11/15 01:40:57;;;;;;;2.37;1.40;;;10.90;43.60;;;;;;4962467;28;20193;-70
2022/11/15 01:43:35;;;;;;;13.13;2.43;;;10.90;43.90;;;;;;4970466;28;20205;-70
2022/11/15 01:46:19;;;;;;;2.58;1.63;;;10.90;43.40;;;;;;4971992;28;20196;-70
2022/11/15 01:48:45;;;;;;;2.35;1.40;;;10.90;43.80;;;;;;4952688;28;20175;-70
2022/11/15 01:51:13;;;;;;;2.27;1.40;;;10.90;43.50;;;;;;4975424;28;20530;-70
2022/11/15 01:53:42;;;;;;;2.00;1.10;;;10.90;43.80;;;;;;4967590;28;20700;-70
2022/11/15 01:56:11;;;;;;;2.00;1.10;;;10.90;43.60;;;;;;4971925;28;20189;-70
2022/11/15 01:58:39;;;;;;;2.90;1.70;;;10.90;43.50;;;;;;4972171;28;20584;-70
2022/11/15 02:01:05;;;;;;;2.70;1.45;;;10.80;44.00;;;;;;4969119;28;20192;-70
2022/11/15 02:03:39;;;;;;;2.80;1.70;;;10.90;43.40;;;;;;4968162;28;20189;-70
2022/11/15 02:06:05;;;;;;;3.05;1.67;;;10.80;43.70;;;;;;4971848;28;20255;-70
2022/11/15 02:08:31;;;;;;;3.50;1.47;;;10.80;43.50;;;;;;4958090;28;20712;-70
2022/11/15 02:10:56;;;;;;;6.63;3.90;;;10.70;43.90;;;;;;4970557;28;20185;-70
2022/11/15 02:13:22;;;;;;;3.20;1.90;;;11.00;44.10;;;;;;4973325;28;20251;-70
2022/11/15 02:16:19;;;;;;;2.20;1.30;;;10.60;44.30;;;;;;4975020;28;20273;-70
2022/11/15 02:18:52;;;;;;;2.20;1.40;;;10.60;44.20;;;;;;4944866;28;20219;-70
2022/11/15 02:21:27;;;;;;;2.10;1.30;;;10.20;45.80;;;;;;4973472;28;20231;-70
2022/11/15 02:24:24;;;;;;;3.10;1.67;;;9.70;50.00;;;;;;4969023;28;20626;-70
2022/11/15 02:27:11;;;;;;;2.30;1.50;;;10.10;48.20;;;;;;4966586;28;20694;-70
2022/11/15 02:29:49;;;;;;;2.00;1.20;;;10.30;46.80;;;;;;4966851;28;20203;-70
2022/11/15 02:32:24;;;;;;;2.40;1.50;;;10.40;46.30;;;;;;4974239;28;20190;-70
2022/11/15 02:35:11;;;;;;;1.88;1.10;;;10.60;46.10;;;;;;4974826;28;20168;-70
2022/11/15 02:37:45;;;;;;;2.42;1.50;;;10.60;45.90;;;;;;4971557;28;20572;-70
2022/11/15 02:40:35;;;;;;;2.08;1.30;;;10.70;45.70;;;;;;4957675;28;20184;-70
2022/11/15 02:46:11;;;;;;;2.00;1.10;;;10.80;45.00;;;;;;4970018;28;20236;-70
2022/11/15 02:48:37;;;;;;;3.95;1.98;;;10.80;44.90;;;;;;4970894;28;20261;-70
2022/11/15 02:51:03;;;;;;;1.90;1.10;;;10.70;45.80;;;;;;4977390;28;20224;-70
2022/11/15 02:53:29;;;;;;;2.20;1.40;;;10.60;46.00;;;;;;4973518;28;20266;-70
2022/11/15 02:55:57;;;;;;;2.20;1.40;;;10.60;46.10;;;;;;4975100;28;20657;-70
2022/11/15 02:58:46;;;;;;;1.90;1.20;;;10.40;46.20;;;;;;4966094;28;20188;-70
2022/11/15 03:01:26;;;;;;;1.90;1.10;;;9.80;50.00;;;;;;4983719;28;20209;-70
2022/11/15 03:03:54;;;;;;;2.55;1.67;;;9.60;51.50;;;;;;4993854;28;20170;-70
2022/11/15 03:06:49;;;;;;;2.10;1.30;;;9.70;51.50;;;;;;4993587;28;20197;-70
2022/11/15 03:09:36;;;;;;;2.10;1.38;;;9.70;51.80;;;;;;4980597;28;20184;-70
2022/11/15 03:12:14;;;;;;;2.00;1.25;;;9.10;54.90;;;;;;4973905;28;20209;-70
2022/11/15 03:14:49;;;;;;;1.90;1.15;;;9.60;53.00;;;;;;4986389;28;20222;-70
2022/11/15 03:17:33;;;;;;;2.20;1.50;;;10.10;49.60;;;;;;4973186;28;20194;-70
2022/11/15 03:20:01;;;;;;;4.47;2.10;;;10.20;48.80;;;;;;4968097;28;20672;-70
2022/11/15 03:22:30;;;;;;;1.80;1.10;;;10.50;48.20;;;;;;4980190;28;20697;-70
2022/11/15 03:25:00;;;;;;;2.63;1.83;;;10.70;47.40;;;;;;4975808;28;20187;-70
2022/11/15 03:27:33;;;;;;;2.10;1.50;;;11.10;46.30;;;;;;4993164;28;20196;-70
2022/11/15 03:30:03;;;;;;;2.00;1.20;;;10.50;47.20;;;;;;4976432;28;20184;-70
2022/11/15 03:32:34;;;;;;;2.20;1.20;;;9.70;53.10;;;;;;4969799;28;20209;-70
2022/11/15 03:35:05;;;;;;;4.20;1.75;;;9.30;54.00;;;;;;4993154;28;20542;-70
2022/11/15 03:37:48;;;;;;;2.63;1.77;;;9.40;54.40;;;;;;4993295;28;20816;-70
2022/11/15 03:40:14;;;;;;;2.53;1.40;;;9.70;52.80;;;;;;4980879;28;20191;-70
2022/11/15 03:42:50;;;;;;;2.60;1.80;;;9.60;52.70;;;;;;4971342;28;20518;-70
2022/11/15 03:45:32;;;;;;;1.88;1.17;;;9.80;51.70;;;;;;4973168;28;20650;-70
2022/11/15 03:48:11;;;;;;;2.17;1.40;;;10.20;48.80;;;;;;4973832;28;20170;-70
2022/11/15 03:50:37;;;;;;;2.05;1.23;;;10.30;47.60;;;;;;4973332;28;20599;-71
2022/11/15 03:53:03;;;;;;;1.93;1.23;;;10.00;48.60;;;;;;4983014;28;20290;-71
2022/11/15 03:55:28;;;;;;;2.60;1.60;;;9.90;49.50;;;;;;4968093;28;20475;-71
2022/11/15 03:57:59;;;;;;;3.13;1.83;;;10.10;48.70;;;;;;4973479;28;20824;-71
2022/11/15 04:00:25;;;;;;;2.20;1.65;;;10.10;48.20;;;;;;4973943;28;20189;-71
2022/11/15 04:02:50;;;;;;;2.00;1.30;;;10.00;47.90;;;;;;4987657;28;20709;-71
2022/11/15 04:05:16;;;;;;;1.90;1.20;;;10.00;48.00;;;;;;4978136;28;20218;-71
2022/11/15 04:07:41;;;;;;;1.90;1.10;;;10.00;47.50;;;;;;4956010;28;20183;-71
2022/11/15 04:10:10;;;;;;;1.90;1.33;;;9.60;49.60;;;;;;4966412;28;20498;-70
2022/11/15 04:12:40;;;;;;;1.90;1.25;;;9.60;51.10;;;;;;4972779;28;20249;-70
2022/11/15 04:15:08;;;;;;;2.00;1.20;;;9.80;49.40;;;;;;4982592;28;20198;-70
2022/11/15 04:17:40;;;;;;;2.50;1.70;;;10.00;47.30;;;;;;4972913;28;20548;-70
2022/11/15 04:25:43;;;;;;;1.90;1.10;;;10.10;46.00;;;;;;4956071;28;20245;-70
2022/11/15 04:28:10;;;;;;;1.88;1.17;;;10.10;46.00;;;;;;4970462;28;20230;-70
2022/11/15 04:30:35;;;;;;;1.90;1.20;;;10.10;46.10;;;;;;4972034;28;20274;-70
2022/11/15 04:33:01;;;;;;;1.90;1.20;;;10.20;45.50;;;;;;4971693;28;20280;-70
2022/11/15 04:35:27;;;;;;;1.87;1.20;;;10.30;45.20;;;;;;4973607;28;20703;-70
2022/11/15 04:37:53;;;;;;;2.50;1.40;;;10.40;45.20;;;;;;4971343;28;20497;-70
2022/11/15 04:40:19;;;;;;;3.50;1.80;;;10.20;45.20;;;;;;4982764;28;20248;-70
2022/11/15 04:42:44;;;;;;;4.10;2.60;;;10.30;45.30;;;;;;4986424;28;20285;-70
2022/11/15 04:45:10;;;;;;;2.10;1.40;;;10.30;45.50;;;;;;4987253;28;20621;-70
2022/11/15 04:47:36;;;;;;;2.30;1.60;;;10.20;45.70;;;;;;4978385;28;20198;-70
2022/11/15 04:50:02;;;;;;;1.80;1.10;;;10.30;46.00;;;;;;4972714;28;20202;-70
2022/11/15 04:52:28;;;;;;;1.90;1.20;;;10.30;45.80;;;;;;4971814;28;20219;-71
2022/11/15 04:54:53;;;;;;;2.03;1.30;;;10.30;45.30;;;;;;4965919;28;20264;-71
2022/11/15 04:57:19;;;;;;;2.53;1.77;;;10.40;45.30;;;;;;4987197;28;20194;-70
2022/11/15 04:59:45;;;;;;;2.25;1.52;;;10.30;45.40;;;;;;4967152;28;20685;-70
2022/11/15 05:02:11;;;;;;;2.63;1.30;;;10.30;45.50;;;;;;4965227;28;20214;-70
2022/11/15 05:04:36;;;;;;;2.07;1.33;;;10.40;44.80;;;;;;4975492;28;20287;-70
2022/11/15 05:07:03;;;;;;;2.27;1.30;;;10.30;45.20;;;;;;4991644;28;20611;-70
2022/11/15 05:09:29;;;;;;;2.25;1.40;;;10.30;45.30;;;;;;4975764;28;20226;-70
2022/11/15 05:11:55;;;;;;;2.77;2.10;;;10.20;45.60;;;;;;4971755;28;20711;-70
2022/11/15 05:14:20;;;;;;;1.80;1.10;;;10.30;45.70;;;;;;4970944;28;20180;-70
2022/11/15 05:16:46;;;;;;;2.50;1.63;;;10.30;45.60;;;;;;4974544;28;20265;-70
2022/11/15 05:19:11;;;;;;;2.67;1.77;;;10.30;46.00;;;;;;4981177;28;20242;-70
2022/11/15 05:21:37;;;;;;;2.10;1.33;;;10.20;46.00;;;;;;4971406;28;20217;-71
2022/11/15 05:24:04;;;;;;;2.00;1.30;;;10.10;46.70;;;;;;4972117;28;20186;-71
2022/11/15 05:26:29;;;;;;;2.20;1.50;;;10.20;46.80;;;;;;4963578;28;20600;-71
2022/11/15 05:28:56;;;;;;;1.80;1.23;;;10.70;46.50;;;;;;4976428;28;20186;-70
2022/11/15 05:31:22;;;;;;;1.70;1.10;;;10.30;46.70;;;;;;4965936;28;20187;-70
2022/11/15 05:33:51;;;;;;;1.90;1.20;;;10.40;46.60;;;;;;4971281;28;20554;-70
2022/11/15 05:36:35;;;;;;;1.85;1.20;;;10.10;46.90;;;;;;4972281;28;20231;-70
2022/11/15 05:39:02;;;;;;;2.00;1.40;;;9.90;49.50;;;;;;4983281;28;20600;-70
2022/11/15 05:41:38;;;;;;;3.55;1.95;;;10.00;48.60;;;;;;4967071;28;20268;-70
2022/11/15 05:44:07;;;;;;;1.80;1.10;;;10.10;47.70;;;;;;4975478;28;20178;-70
2022/11/15 05:46:34;;;;;;;1.80;1.13;;;10.20;47.40;;;;;;4975276;28;20254;-70
2022/11/15 05:48:59;;;;;;;1.80;1.10;;;10.50;46.90;;;;;;4970427;28;20548;-70
2022/11/15 05:51:29;;;;;;;3.33;1.73;;;10.50;46.40;;;;;;4981955;28;20212;-70
2022/11/15 05:53:58;;;;;;;1.80;1.20;;;10.60;46.50;;;;;;4975589;28;20478;-70
2022/11/15 05:56:24;;;;;;;1.80;1.20;;;10.60;45.80;;;;;;4975832;28;20183;-70
2022/11/15 05:58:51;;;;;;;2.85;1.73;;;10.60;45.90;;;;;;4971068;28;20690;-71
2022/11/15 06:01:16;;;;;;;1.80;1.20;;;10.50;46.10;;;;;;4972590;28;20306;-71
2022/11/15 06:03:42;;;;;;;2.77;1.80;;;10.00;47.30;;;;;;4975237;28;20840;-70
2022/11/15 06:06:08;;;;;;;2.90;1.90;;;10.00;48.00;;;;;;4975428;28;20191;-71
2022/11/15 06:08:33;;;;;;;1.80;1.20;;;10.20;47.10;;;;;;4974780;28;20226;-71
2022/11/15 06:11:04;;;;;;;3.20;1.97;;;10.10;47.30;;;;;;4971630;28;20180;-71
2022/11/15 06:13:30;;;;;;;3.15;2.00;;;10.20;47.20;;;;;;4969733;28;20223;-71
2022/11/15 06:15:56;;;;;;;2.63;1.83;;;10.10;47.10;;;;;;4990710;28;20186;-71
2022/11/15 06:18:22;;;;;;;2.60;1.70;;;10.20;47.10;;;;;;4970448;28;20267;-71
2022/11/15 06:20:47;;;;;;;3.20;1.90;;;10.00;48.00;;;;;;4975111;28;20321;-71
2022/11/15 06:23:13;;;;;;;2.27;1.47;;;10.10;47.60;;;;;;4954128;28;20207;-70
2022/11/15 06:25:39;;;;;;;2.60;1.90;;;10.30;47.30;;;;;;4974561;28;20826;-70
2022/11/15 06:28:04;;;;;;;3.43;1.80;;;10.20;47.40;;;;;;4973162;28;20193;-70
2022/11/15 06:30:30;;;;;;;2.53;1.57;;;10.30;47.90;;;;;;4972243;28;20187;-70
2022/11/15 06:33:03;;;;;;;2.17;1.43;;;10.30;48.40;;;;;;4972996;28;20566;-70
2022/11/15 06:35:29;;;;;;;1.98;1.40;;;10.40;48.20;;;;;;4972423;28;20213;-70
2022/11/15 06:37:55;;;;;;;1.95;1.38;;;10.80;47.30;;;;;;4980955;28;20189;-70
2022/11/15 06:40:21;;;;;;;1.70;1.10;;;10.80;47.10;;;;;;4973753;28;20315;-70
2022/11/15 06:42:47;;;;;;;2.00;1.43;;;10.30;48.50;;;;;;4974789;28;21009;-70
2022/11/15 06:45:12;;;;;;;1.87;1.20;;;9.60;51.70;;;;;;4978805;28;20193;-70
2022/11/15 06:47:47;;;;;;;2.17;1.50;;;9.60;52.70;;;;;;4972469;28;20577;-70
2022/11/15 06:50:13;;;;;;;3.50;1.70;;;10.00;50.00;;;;;;4972202;28;20228;-70
2022/11/15 06:52:39;;;;;;;1.67;1.10;;;10.50;48.60;;;;;;4956550;28;20289;-70
2022/11/15 06:55:05;;;;;;;2.00;1.20;;;10.90;47.70;;;;;;4974632;28;20659;-70
2022/11/15 06:57:32;;;;;;;1.80;1.20;;;11.20;46.20;;;;;;4954307;28;20194;-71
2022/11/15 06:59:57;;;;;;;2.28;1.38;;;11.40;46.30;;;;;;4961807;28;20201;-71
2022/11/15 07:02:23;;;;;;;1.70;1.10;;;11.80;45.80;;;;;;4993239;28;20284;-71
2022/11/15 07:04:48;;;;;;;1.90;1.30;;;12.00;43.30;;;;;;4993744;28;20233;-71
2022/11/15 07:07:14;;;;;;;1.80;1.27;;;12.30;45.10;;;;;;4980898;28;20232;-72
2022/11/15 07:09:40;;;;;;;1.80;1.20;;;12.70;44.40;;;;;;4973320;28;20193;-72
2022/11/15 07:12:05;;;;;;;1.80;1.20;;;12.50;45.10;;;;;;4971154;28;20689;-72
2022/11/15 07:14:31;;;;;;;1.80;1.30;;;12.40;44.30;;;;;;4973554;28;20179;-72
2022/11/15 07:16:57;;;;;;;2.93;2.03;;;12.20;44.50;;;;;;4956130;28;20183;-73
2022/11/15 07:19:22;;;;;;;2.00;1.40;;;12.80;44.70;;;;;;4973928;28;20637;-72
2022/11/15 07:21:48;;;;;;;2.23;1.43;;;12.60;43.40;;;;;;4977748;28;20205;-72
2022/11/15 07:24:13;;;;;;;1.80;1.20;;;12.40;42.80;;;;;;4993509;28;20209;-73
2022/11/15 07:26:39;;;;;;;1.90;1.20;;;12.50;43.00;;;;;;4993357;28;20193;-72
2022/11/15 07:29:04;;;;;;;2.10;1.30;;;12.90;43.10;;;;;;4973569;28;20570;-72
2022/11/15 07:31:30;;;;;;;3.80;1.80;;;12.70;42.10;;;;;;4972711;28;22093;-72
2022/11/15 07:34:00;;;;;;;2.40;1.47;;;12.30;42.80;;;;;;4965336;28;20183;-88
2022/11/15 07:36:26;;;;;;;1.97;1.17;;;12.50;42.20;;;;;;4979541;28;20188;-89
2022/11/15 07:38:51;;;;;;;2.10;1.20;;;12.70;41.60;;;;;;4981905;28;20430;-89
2022/11/15 07:41:17;;;;;;;2.30;1.33;;;12.80;41.10;;;;;;4975439;28;20494;-89
2022/11/15 07:43:42;;;;;;;2.20;1.30;;;13.20;41.20;;;;;;4977598;28;20411;-89
2022/11/15 07:46:09;;;;;;;2.47;1.50;;;13.30;40.40;;;;;;4977694;28;20269;-89
2022/11/15 07:48:39;;;;;;;2.60;1.40;;;13.70;38.60;;;;;;4981514;28;20232;-75
2022/11/15 07:51:06;;;;;;;2.30;1.10;;;13.80;38.40;;;;;;4973864;28;20414;-75
2022/11/15 07:53:31;;;;;;;2.47;1.23;;;14.10;38.10;;;;;;4976163;28;21091;-74
2022/11/15 07:55:57;;;;;;;3.93;1.53;;;14.10;37.10;;;;;;4970809;28;20533;-74
2022/11/15 07:58:23;;;;;;;3.40;1.40;;;14.20;38.80;;;;;;4973601;28;20178;-74
2022/11/15 08:00:48;;;;;;;2.70;1.20;;;14.40;36.40;;;;;;4966747;28;20681;-74
2022/11/15 08:03:16;;;;;;;2.90;1.50;;;14.20;36.80;;;;;;4971853;28;20210;-73
2022/11/15 08:05:42;;;;;;;2.80;1.30;;;14.30;37.90;;;;;;4966521;28;20203;-74
2022/11/15 08:08:10;;;;;;;2.87;1.30;;;14.50;37.70;;;;;;4971485;28;20441;-75
2022/11/15 08:10:36;;;;;;;5.00;2.87;;;14.50;37.50;;;;;;4969643;28;20465;-74
2022/11/15 08:13:08;;;;;;;2.70;1.10;;;14.50;36.50;;;;;;4950569;28;20476;-75
2022/11/15 08:15:35;;;;;;;2.90;1.30;;;14.80;36.40;;;;;;4960805;28;20506;-74
2022/11/15 08:18:09;;;;;;;2.80;1.20;;;15.40;36.60;;;;;;4970198;28;20443;-74
2022/11/15 08:20:35;;;;;;;2.80;1.13;;;14.90;36.80;;;;;;4965380;28;20431;-74
2022/11/15 08:23:02;;;;;;;2.90;1.23;;;14.90;36.90;;;;;;4972867;28;20436;-74
2022/11/15 08:25:30;;;;;;;2.97;1.37;;;14.90;36.90;;;;;;4968069;28;20443;-76
2022/11/15 08:27:58;;;;;;;2.80;1.20;;;15.30;37.30;;;;;;4968741;28;20440;-76
2022/11/15 08:30:24;;;;;;;2.80;1.20;;;14.90;36.90;;;;;;4971106;28;20442;-74
2022/11/15 08:32:51;;;;;;;3.00;1.37;;;14.70;38.00;;;;;;4971175;28;20461;-74
2022/11/15 08:35:18;;;;;;;2.90;1.40;;;14.70;36.70;;;;;;4988033;28;20472;-74
2022/11/15 08:37:44;;;;;;;2.90;1.23;;;14.30;36.30;;;;;;4971825;28;20966;-74
2022/11/15 08:40:09;;;;;;;3.40;1.50;;;12.90;40.60;;;;;;4967524;28;20494;-74
2022/11/15 08:42:36;;;;;;;3.40;1.60;;;11.90;44.10;;;;;;4953944;28;20624;-74
2022/11/15 08:45:02;;;;;;;3.90;1.93;;;11.50;46.00;;;;;;4967755;28;20562;-74
2022/11/15 08:47:27;;;;;;;3.97;1.70;;;11.20;47.80;;;;;;4963773;28;21385;-74
2022/11/15 08:49:53;;;;;;;2.70;1.27;;;11.10;48.70;;;;;;4969539;28;20538;-74
2022/11/15 08:52:19;;;;;;;2.70;1.37;;;11.80;48.50;;;;;;4971010;28;20217;-74
2022/11/15 08:54:44;;;;;;;3.10;1.50;;;11.90;46.60;;;;;;4968338;28;20178;-74
2022/11/15 08:57:10;;;;;;;2.80;1.40;;;11.90;46.90;;;;;;4969039;28;20187;-74
2022/11/15 08:59:36;;;;;;;3.73;2.07;;;11.40;48.40;;;;;;4966610;28;20219;-74
2022/11/15 09:02:02;;;;;;;2.47;1.30;;;11.40;50.20;;;;;;4967295;28;20249;-74
2022/11/15 09:04:29;;;;;;;3.37;1.50;;;11.10;50.90;;;;;;4969895;28;20446;-74
2022/11/15 09:06:54;;;;;;;2.50;1.10;;;11.10;51.50;;;;;;4971440;28;20457;-74
2022/11/15 09:09:20;;;;;;;2.50;1.40;;;11.00;52.30;;;;;;4965483;28;20438;-74
2022/11/15 09:11:45;;;;;;;2.30;1.10;;;11.10;53.10;;;;;;4971791;28;20244;-74
2022/11/15 09:14:12;;;;;;;3.27;1.43;;;12.30;49.80;;;;;;4948927;28;20203;-74
2022/11/15 09:16:38;;;;;;;2.40;1.20;;;11.90;48.10;;;;;;4969628;28;20190;-74
2022/11/15 09:19:04;;;;;;;2.40;1.50;;;12.00;47.20;;;;;;4971994;28;20468;-76
2022/11/15 09:21:30;;;;;;;2.53;1.33;;;12.40;48.20;;;;;;4957731;28;20206;-75
2022/11/15 09:23:55;;;;;;;2.50;1.37;;;12.10;47.90;;;;;;4968380;28;20370;-74
2022/11/15 09:26:21;;;;;;;2.43;1.30;;;12.60;46.40;;;;;;4970609;28;20616;-74
2022/11/15 09:28:47;;;;;;;3.37;1.93;;;12.50;47.70;;;;;;4975084;28;20183;-75
2022/11/15 09:31:12;;;;;;;4.53;2.37;;;12.10;49.20;;;;;;4972719;28;20178;-75
2022/11/15 09:33:38;;;;;;;3.20;1.80;;;11.70;51.30;;;;;;4974903;28;20565;-74
2022/11/15 09:36:08;;;;;;;3.23;2.03;;;11.60;52.30;;;;;;4970825;28;20237;-74
2022/11/15 09:38:34;;;;;;;2.53;1.30;;;12.00;51.20;;;;;;4972171;28;20541;-74
2022/11/15 09:41:12;;;;;;;2.57;1.27;;;11.60;51.20;;;;;;4971803;28;20444;-75
2022/11/15 09:44:07;;;;;;;2.80;1.40;;;11.80;51.60;;;;;;4967413;28;20437;-74
2022/11/15 09:46:55;;;;;;;3.10;1.70;;;12.20;50.60;;;;;;4960634;28;20537;-74
2022/11/15 09:49:21;;;;;;;2.67;1.33;;;12.40;49.40;;;;;;4975652;28;20391;-74
2022/11/15 09:51:50;;;;;;;2.60;1.20;;;12.50;49.00;;;;;;4972642;28;20519;-75
2022/11/15 09:54:33;;;;;;;2.97;1.53;;;12.60;49.20;;;;;;4977947;28;20422;-74
2022/11/15 09:57:13;;;;;;;2.90;1.40;;;12.10;50.50;;;;;;4974626;28;20864;-76
2022/11/15 10:00:04;;;;;;;2.77;1.30;;;12.20;51.00;;;;;;4968746;28;20446;-74
2022/11/15 10:03:17;;;;;;;2.67;1.10;;;12.30;51.20;;;;;;4962748;28;20487;-74
2022/11/15 10:05:48;;;;;;;2.70;1.20;;;12.40;50.80;;;;;;4883797;29;20506;-74
2022/11/15 10:08:26;;;;;;;3.07;1.40;;;12.60;49.90;;;;;;4896477;29;20433;-75
2022/11/15 10:11:07;;;;;;;3.30;1.90;;;12.60;51.00;;;;;;4896832;29;20425;-76
2022/11/15 10:13:36;;;;;;;3.10;1.50;;;12.70;50.00;;;;;;4897178;29;20995;-76
2022/11/15 10:16:23;;;;;;;3.17;1.30;;;13.50;47.60;;;;;;4913596;29;20537;-76
2022/11/15 10:19:22;;;;;;;3.60;1.60;;;14.20;45.00;;;;;;4874277;29;21003;-75
2022/11/15 10:22:12;;;;;;;3.00;1.47;;;14.50;43.50;;;;;;4874049;29;20530;-76
2022/11/15 10:24:42;;;;;;;3.10;1.60;;;14.60;43.30;;;;;;4896441;29;20446;-74
2022/11/15 10:27:14;;;;;;;4.40;2.17;;;14.50;43.10;;;;;;4912048;29;20474;-75
2022/11/15 10:29:45;;;;;;;4.33;2.20;;;14.60;43.30;;;;;;4915495;29;20508;-75
2022/11/15 10:32:12;;;;;;;3.00;1.33;;;14.60;43.10;;;;;;4914917;29;20475;-74
2022/11/15 10:34:38;;;;;;;3.83;1.47;;;14.50;43.10;;;;;;4906926;29;20447;-77
2022/11/15 10:37:04;;;;;;;3.47;1.60;;;14.50;43.30;;;;;;4909058;29;20820;-75
2022/11/15 10:39:30;;;;;;;12.10;2.13;;;14.30;44.00;;;;;;4942166;28;20204;-75
2022/11/15 10:41:56;;;;;;;3.30;1.43;;;14.30;44.00;;;;;;4974668;28;20220;-75
2022/11/15 10:44:26;;;;;;;3.97;2.23;;;13.80;45.40;;;;;;4973163;28;20460;-76
2022/11/15 10:46:54;;;;;;;3.87;1.83;;;14.00;45.60;;;;;;4971432;28;20504;-77
2022/11/15 10:49:25;;;;;;;3.40;1.40;;;14.10;45.20;;;;;;4973082;28;20430;-76
2022/11/15 10:52:02;;;;;;;3.73;1.47;;;14.30;44.70;;;;;;4974386;28;20433;-77
2022/11/15 10:54:40;;;;;;;3.63;1.83;;;14.70;43.60;;;;;;4973979;28;20409;-77
2022/11/15 10:57:14;;;;;;;4.80;1.70;;;15.10;42.90;;;;;;4974443;28;20777;-76
2022/11/15 10:59:46;;;;;;;3.43;1.50;;;15.60;41.90;;;;;;4969737;28;20439;-76
2022/11/15 11:02:36;;;;;;;3.93;1.70;;;15.80;40.00;;;;;;4973810;28;20444;-77
2022/11/15 11:05:04;;;;;;;3.13;1.33;;;16.00;39.30;;;;;;4973585;28;20955;-76
2022/11/15 11:07:33;;;;;;;3.30;1.40;;;15.30;40.90;;;;;;4966080;28;20556;-76
2022/11/15 11:10:00;;;;;;;3.30;1.50;;;15.60;40.80;;;;;;4964337;28;20450;-77
2022/11/15 11:12:32;;;;;;;3.90;1.77;;;15.30;40.80;;;;;;4972419;28;20468;-76
2022/11/15 11:14:59;;;;;;;4.10;1.70;;;14.80;43.20;;;;;;4974219;28;20445;-77
2022/11/15 11:17:50;;;;;;;3.10;1.20;;;14.80;42.80;;;;;;4963790;28;20994;-76
2022/11/15 11:20:34;;;;;;;3.10;1.23;;;14.90;42.80;;;;;;4969842;28;21007;-76
2022/11/15 11:23:30;;;;;;;4.43;2.23;;;15.00;42.20;;;;;;4973879;28;20429;-77
2022/11/15 11:25:56;;;;;;;3.10;1.30;;;15.10;42.20;;;;;;4963120;28;20555;-76
2022/11/15 11:28:33;;;;;;;3.63;1.70;;;14.80;43.00;;;;;;4954811;28;20435;-76
2022/11/15 11:31:27;;;;;;;3.50;1.60;;;15.20;42.40;;;;;;4969090;28;20249;-76
2022/11/15 11:34:11;;;;;;;3.50;1.40;;;15.10;41.80;;;;;;4969113;28;20414;-76
2022/11/15 11:36:57;;;;;;;6.10;2.30;;;14.90;42.00;;;;;;4961915;28;20437;-75
2022/11/15 11:39:54;;;;;;;3.27;1.30;;;14.80;42.80;;;;;;4972818;28;20410;-75
2022/11/15 11:42:37;;;;;;;4.27;1.80;;;15.10;42.80;;;;;;4962674;28;20450;-74
2022/11/15 11:45:19;;;;;;;4.67;2.00;;;16.00;40.40;;;;;;4964504;28;20435;-75
2022/11/15 11:48:13;;;;;;;3.30;1.40;;;16.30;38.90;;;;;;4972945;28;20908;-73
2022/11/15 11:50:40;;;;;;;3.70;1.40;;;16.50;38.40;;;;;;4967141;28;20425;-73
2022/11/15 11:53:15;;;;;;;3.37;1.57;;;16.40;38.20;;;;;;4970037;28;20962;-73
2022/11/15 11:55:49;;;;;;;3.23;1.47;;;16.20;38.60;;;;;;4969721;28;21064;-73
2022/11/15 11:58:27;;;;;;;7.10;2.37;;;16.20;39.00;;;;;;4972690;28;20916;-73
2022/11/15 12:00:58;;;;;;;3.53;1.67;;;16.30;38.20;;;;;;4971379;28;20434;-73
2022/11/15 12:03:49;;;;;;;4.57;2.43;;;16.40;38.30;;;;;;4965611;28;20466;-76
2022/11/15 12:06:29;;;;;;;4.03;1.90;;;16.40;38.30;;;;;;4968284;28;20480;-74
2022/11/15 12:09:17;;;;;;;8.30;3.20;;;16.20;39.20;;;;;;4965323;28;20435;-74
2022/11/15 12:12:13;;;;;;;6.00;2.23;;;16.10;39.40;;;;;;4970509;28;20830;-72
2022/11/15 12:14:47;;;;;;;3.50;1.60;;;15.70;40.00;;;;;;4968255;28;20446;-73
2022/11/15 12:17:16;;;;;;;5.30;2.10;;;15.50;40.30;;;;;;4966048;28;20469;-75
2022/11/15 12:19:42;;;;;;;7.53;2.30;;;15.80;40.00;;;;;;4965059;28;20433;-73
2022/11/15 12:22:17;;;;;;;3.30;1.50;;;16.10;38.00;;;;;;4969389;28;20453;-74
2022/11/15 12:24:55;;;;;;;3.50;1.60;;;16.00;38.70;;;;;;4967752;28;20948;-73
2022/11/15 12:27:44;;;;;;;5.17;2.33;;;15.80;39.20;;;;;;4969225;28;20988;-73
2022/11/15 12:30:17;;;;;;;4.13;1.80;;;15.80;39.30;;;;;;4949170;28;20837;-72
2022/11/15 12:32:58;;;;;;;4.07;1.77;;;16.30;38.70;;;;;;4969269;28;20470;-73
2022/11/15 12:35:40;;;;;;;3.27;1.43;;;16.80;39.10;;;;;;4951508;28;20442;-75
2022/11/15 12:38:11;;;;;;;4.00;1.73;;;17.20;38.70;;;;;;4969609;28;20418;-74
2022/11/15 12:40:56;;;;;;;3.40;1.40;;;17.20;37.30;;;;;;4966771;28;20426;-72
2022/11/15 12:43:44;;;;;;;4.03;1.90;;;17.20;38.00;;;;;;4969310;28;20511;-72
2022/11/15 12:46:21;;;;;;;5.10;2.33;;;17.10;37.30;;;;;;4968589;28;20458;-69
2022/11/15 12:48:50;;;;;;;5.00;2.33;;;17.20;37.00;;;;;;4970328;28;20948;-70
2022/11/15 12:51:17;;;;;;;3.40;1.60;;;17.20;36.80;;;;;;4971482;28;20971;-70
2022/11/15 12:53:42;;;;;;;3.40;1.53;;;17.30;37.60;;;;;;4985772;28;20432;-72
2022/11/15 12:56:17;;;;;;;3.73;1.87;;;17.40;37.20;;;;;;4970330;28;20427;-70
2022/11/15 12:58:59;;;;;;;3.50;1.90;;;17.60;36.60;;;;;;4970183;28;20220;-71
2022/11/15 13:01:33;;;;;;;3.43;1.47;;;17.90;35.30;;;;;;4965651;28;20472;-71
2022/11/15 13:04:11;;;;;;;4.70;2.03;;;17.90;36.50;;;;;;4979602;28;20475;-71
2022/11/15 13:06:47;;;;;;;5.43;2.80;;;17.70;36.40;;;;;;4964186;28;20964;-72
2022/11/15 13:09:31;;;;;;;5.73;2.53;;;17.60;35.90;;;;;;4968995;28;20512;-71
2022/11/15 13:12:01;;;;;;;6.30;2.70;;;17.60;35.60;;;;;;4963145;28;20478;-74
2022/11/15 13:14:54;;;;;;;3.67;2.00;;;17.20;36.40;;;;;;4968793;28;20438;-73